Latest Weather Observations for Salmon Gums RS

IDW60801

Issued at 6:33 pm WST Wednesday 28 June 2017 (issued every 30 minutes, with the page automatically refreshed every 10 minutes)

About weather observations | Map of weather stations | Latest weather observations for WA | Other Formats
Station Details ID: 012071 Name: SALMON GUMS RES.STN. Lat: -32.99 Lon: 121.62 Height: 249.0 m
Data from the previous 72 hours. | See also: Recent months at Salmon Gums RS
Date/Time
WST
Temp
°C
App
Temp
°C
Dew
Point
°C
Rel
Hum
%
Delta-T
°C
Wind Press
QNH
hPa
Press
MSL
hPa
Rain since
9am
mm
Dir  Spd
km/h
Gust
km/h
Spd
kts
Gust
kts
28/06:30pm 3.8 2.0 1.5 85 0.9 CALM 0 0 0 0 - - 0.0
28/06:00pm 5.3 3.7 2.3 81 1.2 CALM 0 0 0 0 - - 0.0
28/05:30pm 7.6 6.2 3.3 74 1.9 CALM 0 0 0 0 - - 0.0
28/05:00pm 9.7 7.6 4.1 68 2.5 SSE 4 4 2 2 - - 0.0
28/04:30pm 11.6 9.1 4.8 63 3.1 SSE 7 9 4 5 - - 0.0
28/04:00pm 12.8 9.1 4.3 56 3.9 SSE 13 17 7 9 - - 0.0
28/03:30pm 13.3 10.0 4.5 55 4.1 SE 11 17 6 9 - - 0.0
28/03:00pm 13.6 11.1 4.7 55 4.2 S 7 17 4 9 - - 0.0
28/02:30pm 13.8 10.5 4.7 54 4.3 SSE 11 17 6 9 - - 0.0
28/02:00pm 13.7 10.8 4.6 54 4.3 SSE 9 15 5 8 - - 0.0
28/01:30pm 13.6 10.7 4.7 55 4.2 S 9 17 5 9 - - 0.0
28/01:00pm 13.3 10.8 5.0 57 3.9 SSE 7 15 4 8 - - 0.0
28/12:30pm 12.9 9.6 4.8 58 3.8 SSE 11 19 6 10 - - 0.0
28/12:00pm 13.6 10.5 5.7 59 3.8 SSE 11 22 6 12 - - 0.0
28/11:30am 12.4 8.8 4.9 60 3.5 SSE 13 20 7 11 - - 0.0
28/11:00am 12.4 8.9 5.3 62 3.3 SE 13 19 7 10 - - 0.0
28/10:30am 11.7 8.9 6.8 72 2.4 ESE 11 17 6 9 - - 0.0
28/10:00am 11.4 9.4 10.1 92 0.7 ESE 11 13 6 7 - - 0.0
28/09:30am 10.1 8.6 9.3 95 0.4 ESE 7 13 4 7 - - 0.0
28/09:00am 9.6 9.0 9.0 96 0.3 SE 2 6 1 3 - - 0.4
28/08:30am 8.2 7.6 7.6 96 0.3 CALM 0 0 0 0 - - 0.4
28/08:00am 5.7 4.6 5.1 96 0.3 CALM 0 0 0 0 - - 0.4
28/07:30am 3.4 1.9 2.8 96 0.2 CALM 0 0 0 0 - - 0.4
28/07:00am 1.7 -0.1 1.0 95 0.3 CALM 0 0 0 0 - - 0.2
28/06:30am 1.8 0.0 1.1 95 0.3 CALM 0 0 0 0 - - 0.2
28/06:00am 2.1 0.3 1.4 95 0.3 CALM 0 0 0 0 - - 0.2
28/05:30am 2.6 0.9 1.7 94 0.4 CALM 0 0 0 0 - - 0.2
28/05:00am 3.7 1.8 2.8 94 0.4 SE 2 2 1 1 - - 0.2
28/04:30am 5.1 3.1 4.2 94 0.4 SE 4 4 2 2 - - 0.2
28/04:00am 6.7 5.4 5.8 94 0.4 ESE 2 4 1 2 - - 0.2
28/03:30am 7.6 6.5 6.9 95 0.3 ESE 2 4 1 2 - - 0.2
28/03:00am 7.4 6.3 6.7 95 0.3 SE 2 2 1 1 - - 0.2
28/02:30am 7.2 6.4 6.3 94 0.4 CALM 0 0 0 0 - - 0.2
28/02:00am 8.2 6.4 7.3 94 0.4 SE 6 9 3 5 - - 0.2
28/01:30am 8.9 7.1 8.0 94 0.4 SSE 7 9 4 5 - - 0.2
28/01:00am 8.4 6.7 7.5 94 0.4 SSE 6 11 3 6 - - 0.2
28/12:30am 9.3 7.2 8.4 94 0.4 S 9 11 5 6 - - 0.2
28/12:00am 9.6 7.2 8.7 94 0.4 S 11 17 6 9 - - 0.2
 
Date/Time
WST
Temp
°C
App
Temp
°C
Dew
Point
°C
Rel
Hum
%
Delta-T
°C
Wind Press
QNH
hPa
Press
MSL
hPa
Rain since
9am
mm
Dir  Spd
km/h
Gust
km/h
Spd
kts
Gust
kts
27/11:30pm 9.3 7.2 8.4 94 0.4 S 9 15 5 8 - - 0.2
27/11:00pm 8.8 6.6 7.9 94 0.4 SSW 9 13 5 7 - - 0.2
27/10:30pm 8.6 6.3 7.5 93 0.5 SW 9 13 5 7 - - 0.2
27/10:00pm 6.4 4.0 5.4 93 0.4 SSW 7 11 4 6 - - 0.2
27/09:30pm 4.9 2.7 3.6 91 0.5 SSW 4 4 2 2 - - 0.2
27/09:00pm 5.9 4.0 4.7 92 0.5 SSW 4 7 2 4 - - 0.2
27/08:30pm 5.0 3.2 3.5 90 0.6 SW 2 4 1 2 - - 0.2
27/08:00pm 6.1 4.9 4.6 90 0.7 CALM 0 0 0 0 - - 0.2
27/07:30pm 8.0 6.4 6.5 90 0.7 SSW 4 9 2 5 - - 0.2
27/07:00pm 8.5 6.4 6.8 89 0.8 SSW 7 11 4 6 - - 0.2
27/06:30pm 8.8 6.9 6.9 88 0.9 SSW 6 6 3 3 - - 0.2
27/06:00pm 9.5 7.8 7.4 87 1.0 SSW 6 6 3 3 - - 0.2
27/05:30pm 10.8 9.3 8.6 86 1.1 S 6 7 3 4 - - 0.2
27/05:00pm 11.2 9.6 8.8 85 1.2 SSE 7 9 4 5 - - 0.2
27/04:30pm 12.0 10.2 9.4 84 1.3 SSE 9 13 5 7 - - 0.2
27/04:00pm 11.9 11.1 9.6 86 1.2 S 4 6 2 3 - - 0.2
27/03:30pm 11.7 7.9 8.9 83 1.4 S 19 26 10 14 - - 0.0
27/03:00pm 13.7 9.7 9.0 73 2.4 SSW 20 26 11 14 - - 0.0
27/02:30pm 13.5 9.7 9.2 75 2.2 SSW 19 26 10 14 - - 0.0
27/02:00pm 16.0 13.5 8.2 60 4.0 SSE 11 19 6 10 - - 0.0
27/01:30pm 15.6 12.7 8.1 61 3.8 SSE 13 17 7 9 - - 0.0
27/01:00pm 15.2 12.4 8.7 65 3.3 SSW 13 17 7 9 - - 0.0
27/12:30pm 14.3 11.8 8.3 67 3.0 S 11 19 6 10 - - 0.0
27/12:00pm 13.9 11.5 8.7 71 2.7 SSW 11 17 6 9 - - 0.0
27/11:30am 14.3 12.3 10.1 76 2.2 SSW 11 17 6 9 - - 0.0
27/11:00am 13.7 12.0 9.9 78 2.0 SW 9 15 5 8 - - 0.0
27/10:30am 12.8 11.0 9.3 79 1.8 SW 9 15 5 8 - - 0.0
27/10:00am 11.5 9.1 8.5 82 1.5 WSW 11 17 6 9 - - 0.0
27/09:30am 10.4 8.0 8.5 88 0.9 W 11 15 6 8 - - 0.0
27/09:00am 9.3 6.8 8.1 92 0.6 W 11 17 6 9 - - 0.8
27/08:30am 8.3 5.6 7.4 94 0.4 WNW 11 15 6 8 - - 0.8
27/08:00am 7.5 5.0 6.6 94 0.4 WNW 9 15 5 8 - - 0.8
27/07:30am 6.4 3.7 5.5 94 0.4 WNW 9 13 5 7 - - 0.8
27/07:00am 6.2 3.8 5.3 94 0.4 WNW 7 11 4 6 - - 0.8
27/06:30am 6.2 3.8 5.3 94 0.4 WNW 7 11 4 6 - - 0.8
27/06:00am 6.4 3.7 5.5 94 0.4 WNW 9 11 5 6 - - 0.8
27/05:30am 7.0 4.8 6.1 94 0.4 WNW 7 13 4 7 - - 0.8
27/05:00am 7.0 4.8 6.1 94 0.4 WNW 7 11 4 6 - - 0.8
27/04:30am 5.7 3.4 4.8 94 0.4 WNW 6 9 3 5 - - 0.8
27/04:00am 4.9 2.4 3.9 93 0.4 NW 6 9 3 5 - - 0.8
27/03:30am 5.7 3.8 4.7 93 0.4 NW 4 6 2 3 - - 0.8
27/03:00am 6.0 4.1 5.0 93 0.4 NW 4 6 2 3 - - 0.6
27/02:30am 5.5 3.1 4.3 92 0.5 NW 6 7 3 4 - - 0.6
27/02:00am 5.6 3.2 4.4 92 0.5 NW 6 7 3 4 - - 0.6
27/01:30am 5.9 3.9 4.5 91 0.6 NW 4 6 2 3 - - 0.6
27/01:00am 6.9 5.1 5.5 91 0.6 NW 4 6 2 3 - - 0.6
27/12:30am 7.7 6.1 6.3 91 0.6 WNW 4 7 2 4 - - 0.6
27/12:00am 7.7 5.8 6.5 92 0.6 W 6 9 3 5 - - 0.6
 
Date/Time
WST
Temp
°C
App
Temp
°C
Dew
Point
°C
Rel
Hum
%
Delta-T
°C
Wind Press
QNH
hPa
Press
MSL
hPa
Rain since
9am
mm
Dir  Spd
km/h
Gust
km/h
Spd
kts
Gust
kts
26/11:30pm 7.4 5.4 6.2 92 0.6 NW 6 6 3 3 - - 0.6
26/11:00pm 7.4 5.7 6.0 91 0.6 NW 4 6 2 3 - - 0.6
26/10:30pm 7.5 5.8 6.1 91 0.6 NW 4 6 2 3 - - 0.6
26/10:00pm 8.3 6.4 6.8 90 0.7 NW 6 9 3 5 - - 0.6
26/09:30pm 8.7 6.7 7.2 90 0.7 NW 7 11 4 6 - - 0.6
26/09:00pm 9.4 7.6 8.0 91 0.7 NW 7 11 4 6 - - 0.6
26/08:30pm 9.1 7.8 7.7 91 0.7 NW 4 6 2 3 - - 0.6
26/08:00pm 9.0 7.7 7.5 90 0.7 NW 4 4 2 2 - - 0.6
26/07:30pm 9.1 7.8 7.5 90 0.8 NW 4 6 2 3 - - 0.6
26/07:00pm 8.7 7.6 7.0 89 0.8 NNE 2 4 1 2 - - 0.6
26/06:30pm 9.3 8.7 7.6 89 0.8 CALM 0 0 0 0 - - 0.6
26/06:00pm 10.1 8.6 8.4 89 0.8 N 6 7 3 4 - - 0.6
26/05:30pm 10.5 9.4 8.4 87 1.0 NE 4 6 2 3 - - 0.6
26/05:00pm 11.0 9.5 8.4 84 1.3 ENE 6 9 3 5 - - 0.6
26/04:30pm 11.7 9.6 8.2 79 1.7 SE 9 13 5 7 - - 0.6
26/04:00pm 13.0 11.1 7.5 69 2.7 WNW 7 11 4 6 - - 0.6
26/03:30pm 12.7 10.8 7.6 71 2.5 WNW 7 11 4 6 - - 0.6
26/03:00pm 13.3 11.7 8.6 73 2.4 WNW 7 13 4 7 - - 0.6
26/02:30pm 12.1 11.1 8.9 81 1.6 NE 4 9 2 5 - - 0.6
26/02:00pm 11.7 10.2 8.6 81 1.6 ENE 6 7 3 4 - - 0.6
26/01:30pm 13.6 12.4 8.2 70 2.7 WNW 4 9 2 5 - - 0.0
26/01:00pm 12.8 11.4 8.7 76 2.1 WSW 6 9 3 5 - - 0.0
26/12:30pm 12.6 10.3 7.5 71 2.5 WNW 9 15 5 8 - - 0.0
26/12:00pm 12.4 10.1 7.5 72 2.4 W 9 17 5 9 - - 0.0
26/11:30am 12.3 9.5 6.8 69 2.7 WNW 11 19 6 10 - - 0.0
26/11:00am 12.7 10.0 7.4 70 2.6 W 11 17 6 9 - - 0.0
26/10:30am 12.7 10.8 9.2 79 1.8 W 9 13 5 7 - - 0.0
26/10:00am 10.7 9.0 8.5 86 1.1 W 7 13 4 7 - - 0.0
26/09:30am 10.2 8.2 8.6 90 0.8 W 9 13 5 7 - - 0.0
26/09:00am 9.5 7.8 8.3 92 0.6 W 7 9 4 5 - - 0.0
26/08:30am 9.2 7.6 8.1 93 0.5 W 6 7 3 4 - - 0.0
26/08:00am 8.1 6.3 7.0 93 0.5 WNW 6 7 3 4 - - 0.0
26/07:30am 6.1 3.8 4.9 92 0.5 WNW 6 6 3 3 - - 0.0
26/07:00am 6.4 4.5 4.9 90 0.7 WNW 4 4 2 2 - - 0.0
26/06:30am 7.8 6.2 6.3 90 0.7 W 4 4 2 2 - - 0.0
26/06:00am 7.8 6.6 6.3 90 0.7 WNW 2 6 1 3 - - 0.0
26/05:30am 8.0 6.4 6.5 90 0.7 NW 4 6 2 3 - - 0.0
26/05:00am 7.7 6.4 6.2 90 0.7 NW 2 6 1 3 - - 0.0
26/04:30am 7.7 6.0 6.0 89 0.8 NW 4 6 2 3 - - 0.0
26/04:00am 7.4 5.7 5.7 89 0.8 NW 4 6 2 3 - - 0.0
26/03:30am 7.3 6.3 5.6 89 0.8 CALM 0 0 0 0 - - 0.0
26/03:00am 7.2 5.4 5.5 89 0.8 NW 4 6 2 3 - - 0.0
26/02:30am 7.1 4.9 5.4 89 0.8 NW 6 6 3 3 - - 0.0
26/02:00am 7.3 5.2 5.8 90 0.7 NW 6 7 3 4 - - 0.0
26/01:30am 7.4 5.3 6.0 91 0.6 NW 6 7 3 4 - - 0.0
26/01:00am 7.5 5.5 6.3 92 0.6 WNW 6 7 3 4 - - 0.0
26/12:30am 7.3 5.6 6.1 92 0.6 W 4 4 2 2 - - 0.0
26/12:00am 7.2 5.9 6.0 92 0.5 SW 2 4 1 2 - - 0.0
 
Date/Time
WST
Temp
°C
App
Temp
°C
Dew
Point
°C
Rel
Hum
%
Delta-T
°C
Wind Press
QNH
hPa
Press
MSL
hPa
Rain since
9am
mm
Dir  Spd
km/h
Gust
km/h
Spd
kts
Gust
kts
25/11:30pm 6.8 5.8 5.6 92 0.5 CALM 0 0 0 0 - - 0.0
25/11:00pm 6.6 5.6 5.6 93 0.5 CALM 0 0 0 0 - - 0.0
25/10:30pm 6.1 5.0 5.1 93 0.4 CALM 0 0 0 0 - - 0.0
25/10:00pm 5.6 4.4 4.6 93 0.4 CALM 0 0 0 0 - - 0.0
25/09:30pm 4.9 2.8 3.9 93 0.4 WNW 4 6 2 3 - - 0.0
25/09:00pm 3.6 1.2 2.4 92 0.5 WNW 4 6 2 3 - - 0.0
25/08:30pm 2.0 -0.6 0.8 92 0.5 WNW 4 4 2 2 - - 0.0
25/08:00pm 1.9 -0.8 0.6 91 0.5 WNW 4 6 2 3 - - 0.0
25/07:30pm 2.0 0.1 0.4 89 0.6 CALM 0 0 0 0 - - 0.0
25/07:00pm 2.7 0.9 0.9 88 0.7 CALM 0 0 0 0 - - 0.0

Other Formats:

Comma delimited format used in spreadsheet applications
http://www.bom.gov.au/fwo/IDW60801/IDW60801.95639.axf

JavaScript Object Notation format (JSON) in row-major order
http://www.bom.gov.au/fwo/IDW60801/IDW60801.95639.json